Time;durP1;ratioP1;P1;durP2;ratioP2;P2;SDS_P1;SDS_P2;PMS_P1;PMS_P2;Temp;Humidity;BMP_temperature;BMP_pressure;BME280_temperature;BME280_humidity;BME280_pressure;Samples;Min_cycle;Max_cycle;Signal;HPM_P1;HPM_P2
2022/08/07 00:01:49;;;;;;;7.88;1.80;;;;;;;21.32;41.56;102255.25;5025716;28;99188;-67
2022/08/07 00:04:15;;;;;;;3.75;1.58;;;;;;;21.23;41.88;102249.50;5026000;28;96825;-66
2022/08/07 00:06:42;;;;;;;2.55;1.60;;;;;;;21.12;42.50;102252.78;5028537;28;97376;-67
2022/08/07 00:09:08;;;;;;;3.88;1.40;;;;;;;21.06;42.51;102245.06;5030658;27;98981;-67
2022/08/07 00:11:35;;;;;;;7.28;1.73;;;;;;;21.17;41.95;102255.22;5029245;27;99208;-66
2022/08/07 00:14:01;;;;;;;1.80;1.33;;;;;;;21.18;41.70;102256.97;5029075;27;96769;-66
2022/08/07 00:16:27;;;;;;;2.80;1.80;;;;;;;21.03;42.05;102247.91;5028386;28;97033;-67
2022/08/07 00:18:55;;;;;;;1.75;1.45;;;;;;;21.16;41.81;102251.66;5032113;27;100268;-68
2022/08/07 00:21:21;;;;;;;3.22;1.60;;;;;;;21.09;42.10;102252.94;5030233;27;99527;-67
2022/08/07 00:23:48;;;;;;;4.43;1.70;;;;;;;21.40;41.24;102261.03;5026917;28;97159;-67
2022/08/07 00:26:14;;;;;;;3.60;1.90;;;;;;;21.68;40.59;102259.44;5026663;27;97486;-66
2022/08/07 00:28:42;;;;;;;3.17;1.50;;;;;;;21.84;38.01;102252.22;5028359;27;99319;-66
2022/08/07 00:31:09;;;;;;;2.47;1.55;;;;;;;21.85;39.19;102254.84;5023886;27;100599;-67
2022/08/07 00:33:38;;;;;;;3.97;1.55;;;;;;;22.04;39.19;102253.75;5029147;27;97377;-66
2022/08/07 00:36:07;;;;;;;3.80;1.70;;;;;;;22.03;38.71;102255.59;5025771;27;97485;-66
2022/08/07 00:38:35;;;;;;;4.43;2.00;;;;;;;21.67;38.51;102257.72;5028708;28;97762;-67
2022/08/07 00:41:02;;;;;;;2.45;1.50;;;;;;;21.79;39.04;102249.78;5028996;28;99040;-66
2022/08/07 00:43:28;;;;;;;3.42;1.58;;;;;;;21.65;39.57;102247.06;5026582;28;98710;-66
2022/08/07 00:45:54;;;;;;;3.03;1.50;;;;;;;21.48;40.58;102245.31;5029412;28;96841;-67
2022/08/07 00:48:21;;;;;;;2.35;1.58;;;;;;;21.50;41.09;102247.94;5028012;28;99328;-67
2022/08/07 00:50:47;;;;;;;4.22;1.45;;;;;;;21.32;41.24;102249.88;5027679;28;99085;-67
2022/08/07 00:53:15;;;;;;;5.15;1.90;;;;;;;20.92;42.18;102253.00;5028552;28;97305;-67
2022/08/07 00:55:41;;;;;;;3.90;1.55;;;;;;;21.00;41.93;102243.53;5029777;28;97228;-67
2022/08/07 00:58:08;;;;;;;2.45;1.50;;;;;;;20.82;42.40;102244.56;5032218;27;99213;-67
2022/08/07 01:00:34;;;;;;;2.08;1.40;;;;;;;20.72;42.71;102248.72;5026323;27;98314;-68
2022/08/07 01:03:01;;;;;;;3.17;1.60;;;;;;;20.52;43.01;102247.09;5028335;27;97135;-67
2022/08/07 01:05:28;;;;;;;4.95;1.45;;;;;;;20.75;42.78;102253.03;5025845;27;96879;-66
2022/08/07 01:07:55;;;;;;;3.83;1.55;;;;;;;20.72;43.17;102258.59;5025482;28;99215;-66
2022/08/07 01:10:22;;;;;;;2.92;1.30;;;;;;;20.83;42.40;102245.44;5029705;27;99180;-66
2022/08/07 01:12:49;;;;;;;7.80;1.70;;;;;;;20.99;41.17;102252.59;5027199;27;96834;-67
2022/08/07 01:15:16;;;;;;;2.25;1.20;;;;;;;21.01;40.87;102249.78;5027751;28;97660;-67
2022/08/07 01:17:43;;;;;;;4.03;1.33;;;;;;;21.06;41.09;102245.94;5023692;27;99345;-67
2022/08/07 01:20:11;;;;;;;5.25;1.48;;;;;;;20.91;42.16;102243.22;5029076;27;100659;-67
2022/08/07 01:22:40;;;;;;;4.70;1.38;;;;;;;20.76;42.93;102244.91;5030786;27;96928;-67
2022/08/07 01:25:09;;;;;;;4.45;1.67;;;;;;;20.72;43.33;102251.41;5027597;28;96992;-66
2022/08/07 01:27:38;;;;;;;4.63;1.80;;;;;;;20.68;43.25;102236.38;5029766;28;98278;-67
2022/08/07 01:30:06;;;;;;;9.35;1.98;;;;;;;20.79;43.11;102238.50;5027486;28;98873;-66
2022/08/07 01:32:32;;;;;;;5.85;1.85;;;;;;;20.76;43.32;102235.97;5030391;28;96735;-67
2022/08/07 01:35:00;;;;;;;4.88;1.90;;;;;;;20.72;43.67;102239.78;5027878;27;97558;-66
2022/08/07 01:37:27;;;;;;;7.47;2.00;;;;;;;20.63;43.88;102250.06;5026831;28;98995;-66
2022/08/07 01:39:57;;;;;;;6.35;1.52;;;;;;;20.65;44.11;102241.94;5031638;28;99530;-65
2022/08/07 01:42:24;;;;;;;3.17;1.60;;;;;;;20.44;44.24;102238.59;5026749;27;97288;-65
2022/08/07 01:44:51;;;;;;;3.92;1.55;;;;;;;20.19;44.87;102235.44;5031393;27;97364;-67
2022/08/07 01:47:18;;;;;;;2.75;1.35;;;;;;;20.24;44.46;102239.59;5029937;27;99435;-65
2022/08/07 01:49:45;;;;;;;3.95;1.45;;;;;;;20.41;44.21;102244.13;5028317;28;99350;-65
2022/08/07 01:52:13;;;;;;;3.72;1.50;;;;;;;20.51;43.85;102250.75;5031542;27;96966;-66
2022/08/07 01:54:41;;;;;;;6.78;1.67;;;;;;;20.47;43.78;102242.94;5033966;27;97023;-66
2022/08/07 01:57:13;;;;;;;4.32;1.15;;;;;;;20.60;43.43;102244.03;5032315;27;99338;-66
2022/08/07 01:59:43;;;;;;;3.55;1.70;;;;;;;20.29;44.27;102255.47;5029089;28;98218;-66
2022/08/07 02:02:17;;;;;;;4.53;1.33;;;;;;;20.34;44.57;102247.22;5031127;27;96847;-65
2022/08/07 02:04:49;;;;;;;11.38;1.92;;;;;;;20.43;44.32;102257.47;5027795;28;97740;-66
2022/08/07 02:07:18;;;;;;;2.47;1.50;;;;;;;20.57;43.95;102245.03;5029708;28;99065;-66
2022/08/07 02:09:46;;;;;;;3.65;1.88;;;;;;;20.57;43.86;102247.72;5032263;27;98567;-66
2022/08/07 02:12:19;;;;;;;3.05;1.58;;;;;;;20.41;43.66;102244.13;5031666;27;97277;-66
2022/08/07 02:14:48;;;;;;;5.72;1.75;;;;;;;20.43;44.05;102246.72;5032015;28;97533;-66
2022/08/07 02:17:15;;;;;;;4.13;1.30;;;;;;;20.36;45.02;102240.81;5030483;27;99628;-65
2022/08/07 02:19:44;;;;;;;6.07;1.80;;;;;;;20.42;44.67;102234.22;5032332;27;99070;-66
2022/08/07 02:22:14;;;;;;;4.13;1.92;;;;;;;20.34;45.11;102244.53;5031169;27;96772;-65
2022/08/07 02:24:42;;;;;;;7.30;1.67;;;;;;;20.40;44.87;102246.91;5031034;27;96833;-66
2022/08/07 02:27:10;;;;;;;6.70;1.80;;;;;;;20.48;44.59;102240.16;5029464;27;99080;-66
2022/08/07 02:29:40;;;;;;;10.48;2.55;;;;;;;20.50;44.69;102242.75;5030857;28;98825;-66
2022/08/07 02:32:10;;;;;;;10.75;5.18;;;;;;;20.38;44.35;102251.47;5031594;28;97219;-66
2022/08/07 02:34:38;;;;;;;6.32;3.40;;;;;;;20.67;43.44;102246.28;5031980;28;96845;-66
2022/08/07 02:37:07;;;;;;;6.70;2.90;;;;;;;20.63;44.11;102239.34;5031039;27;99011;-67
2022/08/07 02:39:35;;;;;;;7.28;2.17;;;;;;;20.58;44.95;102243.22;5032008;28;98929;-66
2022/08/07 02:42:03;;;;;;;6.20;1.98;;;;;;;20.48;44.91;102250.06;5030859;27;96839;-66
2022/08/07 02:44:29;;;;;;;5.68;1.60;;;;;;;20.43;45.22;102241.34;5030511;27;97496;-66
2022/08/07 02:46:59;;;;;;;6.93;1.92;;;;;;;20.51;44.67;102249.88;5030280;27;99645;-67
2022/08/07 02:49:26;;;;;;;10.52;2.28;;;;;;;20.58;45.04;102245.91;5030061;28;98653;-67
2022/08/07 02:51:55;;;;;;;5.30;1.92;;;;;;;20.64;44.34;102240.19;5031492;27;97021;-66
2022/08/07 02:54:23;;;;;;;5.80;2.15;;;;;;;20.64;44.32;102245.56;5031089;27;97323;-66
2022/08/07 02:56:53;;;;;;;3.65;2.00;;;;;;;20.47;44.94;102242.94;5030297;27;99502;-67
2022/08/07 02:59:23;;;;;;;3.45;2.40;;;;;;;20.32;45.69;102238.34;5031657;27;99564;-67
2022/08/07 03:01:51;;;;;;;4.60;1.92;;;;;;;20.26;45.71;102237.72;5030617;28;97018;-67
2022/08/07 03:04:18;;;;;;;2.30;1.88;;;;;;;20.37;45.44;102237.19;5030024;28;97048;-66
2022/08/07 03:06:47;;;;;;;4.22;2.08;;;;;;;20.34;45.61;102233.78;5030314;28;99465;-67
2022/08/07 03:09:14;;;;;;;7.30;1.85;;;;;;;20.53;43.67;102237.25;5031962;27;98928;-67
2022/08/07 03:11:41;;;;;;;4.15;1.98;;;;;;;20.29;43.41;102242.91;5030608;27;96894;-67
2022/08/07 03:14:08;;;;;;;5.75;1.90;;;;;;;20.42;43.35;102239.59;5031064;27;97327;-67
2022/08/07 03:16:35;;;;;;;6.03;2.20;;;;;;;20.41;44.35;102248.63;5029014;28;99472;-67
2022/08/07 03:19:02;;;;;;;5.30;1.85;;;;;;;20.32;44.85;102241.03;5027509;28;99207;-67
2022/08/07 03:21:30;;;;;;;5.55;1.60;;;;;;;20.13;44.65;102243.81;5030560;27;97857;-67
2022/08/07 03:23:58;;;;;;;3.47;1.60;;;;;;;20.14;44.90;102246.41;5030660;27;96751;-68
2022/08/07 03:26:27;;;;;;;7.70;2.13;;;;;;;20.02;45.76;102241.66;5029892;28;98706;-66
2022/08/07 03:28:55;;;;;;;4.22;2.10;;;;;;;20.09;45.91;102239.53;5030653;27;101135;-67
2022/08/07 03:31:23;;;;;;;3.30;1.67;;;;;;;19.81;46.47;102249.00;5030600;28;96924;-67
2022/08/07 03:33:52;;;;;;;3.60;1.75;;;;;;;19.89;46.34;102248.59;5031106;28;97126;-66
2022/08/07 03:36:21;;;;;;;5.25;1.88;;;;;;;19.79;45.86;102247.34;5027378;28;99059;-67
2022/08/07 03:38:52;;;;;;;4.85;1.90;;;;;;;19.81;46.32;102246.31;5027217;28;98849;-69
2022/08/07 03:41:18;;;;;;;3.35;1.50;;;;;;;19.73;46.46;102250.31;5027962;27;98798;-67
2022/08/07 03:43:45;;;;;;;3.22;1.88;;;;;;;19.87;46.20;102255.88;5028399;28;97862;-67
2022/08/07 03:46:14;;;;;;;4.75;2.08;;;;;;;19.49;47.92;102253.25;5030144;27;99434;-67
2022/08/07 03:48:41;;;;;;;4.82;1.83;;;;;;;19.61;47.58;102256.31;5030214;28;99152;-67
2022/08/07 03:51:08;;;;;;;4.85;2.05;;;;;;;19.62;47.56;102250.00;5016343;27;98371;-66
2022/08/07 03:53:34;;;;;;;5.68;1.92;;;;;;;19.61;47.47;102257.16;5030025;28;96900;-66
2022/08/07 03:56:02;;;;;;;4.28;2.05;;;;;;;19.77;46.49;102259.94;5029314;27;99010;-67
2022/08/07 03:58:29;;;;;;;5.75;2.33;;;;;;;19.72;46.87;102251.25;5030686;27;99234;-67
2022/08/07 04:00:57;;;;;;;6.68;1.90;;;;;;;19.97;46.49;102258.94;5029572;27;97061;-66
2022/08/07 04:03:24;;;;;;;4.85;1.92;;;;;;;19.94;46.78;102259.97;5030184;28;97279;-67
2022/08/07 04:05:51;;;;;;;5.15;1.75;;;;;;;19.93;46.58;102265.41;5028611;28;98969;-67
2022/08/07 04:08:18;;;;;;;7.32;2.35;;;;;;;19.86;47.48;102260.38;5026561;27;98614;-66
2022/08/07 04:10:44;;;;;;;4.35;1.92;;;;;;;19.98;47.15;102258.00;5028743;28;96714;-67
2022/08/07 04:13:13;;;;;;;4.47;2.10;;;;;;;19.89;47.14;102260.19;5029967;28;96838;-66
2022/08/07 04:15:40;;;;;;;7.38;2.05;;;;;;;20.00;46.38;102248.94;5027724;27;99165;-66
2022/08/07 04:18:06;;;;;;;3.63;1.88;;;;;;;19.95;46.75;102256.34;5029097;27;99152;-66
2022/08/07 04:20:33;;;;;;;4.45;1.80;;;;;;;19.86;47.69;102263.03;5028521;27;97153;-66
2022/08/07 04:23:00;;;;;;;3.45;2.10;;;;;;;19.76;47.99;102258.19;5030552;27;97028;-67
2022/08/07 04:25:27;;;;;;;5.38;1.80;;;;;;;19.69;48.48;102268.38;5028925;27;99285;-67
2022/08/07 04:27:54;;;;;;;8.32;2.03;;;;;;;19.87;47.75;102261.25;5029430;27;97807;-68
2022/08/07 04:30:21;;;;;;;3.60;1.90;;;;;;;19.81;48.29;102262.41;5028421;27;97706;-67
2022/08/07 04:32:49;;;;;;;2.92;1.90;;;;;;;19.98;48.21;102263.38;5030108;28;97427;-67
2022/08/07 04:35:16;;;;;;;2.97;1.80;;;;;;;20.01;47.69;102265.91;5029210;27;99210;-67
2022/08/07 04:37:42;;;;;;;4.63;1.95;;;;;;;20.16;47.50;102257.03;5027893;27;97977;-67
2022/08/07 04:40:10;;;;;;;5.28;1.85;;;;;;;20.17;47.54;102256.97;5026768;27;96851;-66
2022/08/07 04:42:36;;;;;;;7.10;2.40;;;;;;;20.33;47.30;102261.59;5027223;28;97190;-66
2022/08/07 04:45:05;;;;;;;5.70;2.45;;;;;;;20.58;46.46;102264.72;5029718;27;99253;-68
2022/08/07 04:47:41;;;;;;;5.07;2.13;;;;;;;20.50;47.27;102261.56;5029691;28;98916;-68
2022/08/07 04:50:13;;;;;;;9.32;2.28;;;;;;;20.54;47.64;102261.34;5027620;28;96746;-67
2022/08/07 04:52:44;;;;;;;4.43;1.80;;;;;;;20.72;47.42;102275.59;5029040;27;96967;-67
2022/08/07 04:55:21;;;;;;;4.15;2.05;;;;;;;20.63;47.80;102274.25;5029580;27;98989;-67
2022/08/07 04:57:54;;;;;;;5.15;2.30;;;;;;;20.81;47.44;102271.50;5026740;28;99092;-67
2022/08/07 05:00:30;;;;;;;3.70;2.03;;;;;;;20.88;47.26;102271.09;5028688;28;96855;-67
2022/08/07 05:03:04;;;;;;;6.03;2.63;;;;;;;21.05;47.02;102273.75;5028490;28;98362;-67
2022/08/07 05:05:37;;;;;;;5.70;1.90;;;;;;;21.23;46.38;102276.38;5030011;28;99004;-67
2022/08/07 05:08:07;;;;;;;4.35;1.95;;;;;;;21.23;45.57;102273.69;5025461;28;99064;-68
2022/08/07 05:10:39;;;;;;;5.82;1.92;;;;;;;21.54;44.37;102275.50;5027553;27;97324;-66
2022/08/07 05:13:08;;;;;;;7.20;2.42;;;;;;;21.48;44.79;102272.22;5028613;27;98759;-66
2022/08/07 05:15:43;;;;;;;5.78;1.70;;;;;;;21.62;44.67;102270.56;5032640;28;99223;-68
2022/08/07 05:18:18;;;;;;;7.15;2.30;;;;;;;21.78;43.90;102266.91;5031021;28;99513;-67
2022/08/07 05:20:48;;;;;;;4.27;2.20;;;;;;;21.95;43.76;102267.72;5025590;28;97428;-67
2022/08/07 05:23:19;;;;;;;9.07;2.80;;;;;;;22.27;43.51;102267.56;5025568;28;97902;-67
2022/08/07 05:25:47;;;;;;;7.22;1.95;;;;;;;22.43;41.47;102274.72;5032870;27;99008;-67
2022/08/07 05:28:15;;;;;;;5.00;2.03;;;;;;;22.72;39.86;102278.28;5030561;27;98802;-67
2022/08/07 05:30:43;;;;;;;3.83;1.95;;;;;;;22.72;39.52;102283.69;5030189;27;96741;-67
2022/08/07 05:33:13;;;;;;;5.60;2.15;;;;;;;22.87;37.84;102285.47;5032064;28;96956;-67
2022/08/07 05:35:41;;;;;;;1.85;1.70;;;;;;;22.97;36.19;102278.53;5032442;28;99018;-67
2022/08/07 05:38:09;;;;;;;6.63;1.92;;;;;;;23.49;36.18;102284.19;5031608;27;100094;-67
2022/08/07 05:40:38;;;;;;;3.28;1.92;;;;;;;23.94;33.35;102276.69;5031002;27;97394;-67
2022/08/07 05:43:05;;;;;;;4.85;2.15;;;;;;;23.76;33.80;102278.78;5032167;27;97188;-67
2022/08/07 05:45:32;;;;;;;4.47;1.77;;;;;;;24.27;32.95;102282.50;5031833;27;99009;-67
2022/08/07 05:47:59;;;;;;;3.80;2.08;;;;;;;24.37;32.43;102282.72;5029374;27;99352;-67
2022/08/07 05:50:28;;;;;;;6.05;1.73;;;;;;;24.00;32.30;102290.63;5029479;28;96809;-66
2022/08/07 05:52:54;;;;;;;5.70;2.00;;;;;;;24.09;32.02;102289.16;5031303;27;98381;-67
2022/08/07 05:55:21;;;;;;;3.55;1.70;;;;;;;23.96;32.09;102280.97;5033370;27;99076;-66
2022/08/07 05:57:48;;;;;;;3.53;1.77;;;;;;;24.08;31.61;102285.59;5031019;28;98908;-66
2022/08/07 06:00:16;;;;;;;5.55;2.10;;;;;;;23.98;32.02;102287.16;5031997;27;97259;-66
2022/08/07 06:02:47;;;;;;;8.40;2.10;;;;;;;23.85;31.99;102286.25;5025617;28;96924;-66
2022/08/07 06:05:15;;;;;;;3.97;1.70;;;;;;;24.14;31.79;102290.56;5028315;27;98893;-65
2022/08/07 06:07:43;;;;;;;3.88;1.60;;;;;;;24.33;31.49;102287.50;5031257;27;98952;-66
2022/08/07 06:10:11;;;;;;;4.47;1.95;;;;;;;24.59;31.14;102291.94;5030979;27;97063;-67
2022/08/07 06:12:37;;;;;;;2.05;1.50;;;;;;;24.71;30.49;102287.50;5026413;28;98739;-68
2022/08/07 06:15:05;;;;;;;4.93;1.70;;;;;;;24.39;30.73;102289.78;5031818;28;101343;-67
2022/08/07 06:17:32;;;;;;;3.53;1.30;;;;;;;24.70;30.17;102288.47;5030140;28;98090;-67
2022/08/07 06:19:59;;;;;;;3.00;1.35;;;;;;;24.74;30.23;102290.00;5030118;27;96932;-68
2022/08/07 06:22:27;;;;;;;4.90;1.77;;;;;;;24.90;30.02;102290.66;5023072;28;97348;-66
2022/08/07 06:24:57;;;;;;;3.53;1.90;;;;;;;24.88;29.85;102297.09;5029663;27;97634;-67
2022/08/07 06:27:24;;;;;;;4.95;1.48;;;;;;;24.94;29.92;102294.88;5029922;28;98874;-67
2022/08/07 06:29:51;;;;;;;2.92;1.20;;;;;;;25.05;29.77;102288.72;5031634;27;96918;-67
2022/08/07 06:32:18;;;;;;;3.08;1.20;;;;;;;25.07;29.52;102286.75;5030267;27;97089;-67
2022/08/07 06:34:44;;;;;;;7.35;1.10;;;;;;;25.19;29.12;102291.28;5031437;28;99286;-68
2022/08/07 06:37:11;;;;;;;4.22;1.55;;;;;;;25.20;29.11;102293.00;5030820;28;99310;-67
2022/08/07 06:39:37;;;;;;;5.78;1.65;;;;;;;25.45;28.88;102296.63;5035318;27;96859;-67
2022/08/07 06:42:08;;;;;;;3.65;1.30;;;;;;;25.22;28.77;102295.59;5035011;27;97344;-67
2022/08/07 06:44:36;;;;;;;4.40;1.77;;;;;;;25.60;28.63;102307.19;5027277;27;99353;-68
2022/08/07 06:47:02;;;;;;;4.22;1.02;;;;;;;25.47;28.00;102309.03;5029764;27;98795;-67
2022/08/07 06:49:29;;;;;;;2.28;1.48;;;;;;;25.78;27.59;102303.13;5032703;27;96791;-67
2022/08/07 06:51:57;;;;;;;2.78;1.40;;;;;;;25.91;27.59;102297.66;5032529;27;97860;-67
2022/08/07 06:54:26;;;;;;;4.30;1.10;;;;;;;26.35;26.94;102296.09;5030447;27;99336;-66
2022/08/07 06:56:54;;;;;;;3.10;1.30;;;;;;;26.51;26.69;102297.53;5030799;27;100107;-67
2022/08/07 06:59:26;;;;;;;4.15;1.45;;;;;;;26.71;26.27;102303.22;5030943;27;96786;-67
2022/08/07 07:01:53;;;;;;;2.88;1.60;;;;;;;26.74;26.27;102301.13;5032678;27;96953;-67
2022/08/07 07:04:20;;;;;;;2.60;1.65;;;;;;;26.25;26.32;102298.69;5030126;27;97892;-67
2022/08/07 07:06:46;;;;;;;2.58;1.30;;;;;;;26.00;26.77;102305.06;5030519;28;99452;-67
2022/08/07 07:09:18;;;;;;;5.25;1.30;;;;;;;25.90;26.70;102298.63;5028203;27;97452;-67
2022/08/07 07:11:53;;;;;;;2.83;1.30;;;;;;;26.52;26.24;102291.09;5030202;27;96792;-67
2022/08/07 07:14:24;;;;;;;2.60;1.33;;;;;;;26.50;26.17;102295.78;5031290;27;99184;-67
2022/08/07 07:16:52;;;;;;;3.83;1.30;;;;;;;26.25;25.68;102295.09;5025116;28;99284;-67
2022/08/07 07:19:23;;;;;;;1.05;0.95;;;;;;;26.34;26.16;102303.38;5030287;27;97133;-67
2022/08/07 07:21:53;;;;;;;4.13;1.20;;;;;;;26.56;25.41;102289.03;5030459;27;96953;-67
2022/08/07 07:24:19;;;;;;;4.28;1.25;;;;;;;26.94;25.21;102299.56;5029702;28;99061;-67
2022/08/07 07:26:47;;;;;;;4.82;1.20;;;;;;;27.14;24.43;102295.25;5029748;27;99507;-67
2022/08/07 07:29:16;;;;;;;3.65;1.33;;;;;;;26.94;24.71;102292.28;5030679;28;97214;-67
2022/08/07 07:31:47;;;;;;;3.90;1.30;;;;;;;27.17;24.72;102292.28;5029727;28;97596;-67
2022/08/07 07:34:19;;;;;;;1.20;1.10;;;;;;;27.19;24.44;102285.72;5027393;28;98821;-67
2022/08/07 07:36:47;;;;;;;2.55;1.48;;;;;;;27.50;24.84;102285.94;5030448;27;98728;-67
2022/08/07 07:39:15;;;;;;;1.85;1.10;;;;;;;27.49;24.62;102282.38;5028076;28;97194;-67
2022/08/07 07:41:44;;;;;;;1.83;0.90;;;;;;;27.50;24.54;102289.53;5029882;27;96854;-67
2022/08/07 07:44:13;;;;;;;1.80;1.25;;;;;;;27.16;24.61;102286.00;5028353;27;99241;-68
2022/08/07 07:46:41;;;;;;;2.67;1.48;;;;;;;27.15;25.09;102283.41;5030989;27;99241;-68
2022/08/07 07:49:14;;;;;;;4.35;1.60;;;;;;;27.35;24.97;102278.06;5030279;28;97185;-67
2022/08/07 07:51:43;;;;;;;2.92;1.45;;;;;;;27.79;24.63;102270.81;5027298;28;97246;-67
2022/08/07 07:54:13;;;;;;;3.72;1.42;;;;;;;27.41;24.40;102273.13;5030259;27;99169;-68
2022/08/07 07:56:41;;;;;;;5.03;1.48;;;;;;;27.45;24.53;102269.16;5026151;27;99213;-67
2022/08/07 07:59:12;;;;;;;2.88;1.45;;;;;;;27.05;24.62;102269.72;5027016;28;99125;-67
2022/08/07 08:01:44;;;;;;;4.32;1.65;;;;;;;27.33;24.56;102266.47;5025066;27;97310;-68
2022/08/07 08:04:13;;;;;;;2.25;1.73;;;;;;;27.66;24.32;102261.97;5024694;27;99029;-67
2022/08/07 08:06:42;;;;;;;5.40;1.48;;;;;;;27.87;24.29;102265.59;5026952;28;98102;-67
2022/08/07 08:09:10;;;;;;;5.57;1.23;;;;;;;27.64;24.48;102262.09;5025632;28;97057;-67
2022/08/07 08:11:37;;;;;;;2.42;0.82;;;;;;;27.26;24.24;102262.53;5024235;28;97296;-69
2022/08/07 08:14:04;;;;;;;3.50;1.60;;;;;;;26.98;24.84;102262.22;5021516;27;99402;-69
2022/08/07 08:16:34;;;;;;;2.78;1.10;;;;;;;27.33;24.34;102262.91;5022567;28;100074;-68
2022/08/07 08:19:03;;;;;;;2.58;1.20;;;;;;;27.32;24.26;102253.88;5026081;27;96862;-68
2022/08/07 08:27:08;;;;;;;4.10;1.42;;;;;;;27.30;24.20;102255.88;5022229;28;97804;-68
2022/08/07 08:29:40;;;;;;;3.60;1.10;;;;;;;27.76;23.68;102254.78;5025399;28;97668;-68
2022/08/07 08:32:10;;;;;;;4.75;1.70;;;;;;;27.68;24.03;102246.44;5023213;27;97324;-68
2022/08/07 08:34:39;;;;;;;2.67;0.93;;;;;;;27.76;23.61;102246.66;5023381;28;100191;-68
2022/08/07 08:37:09;;;;;;;3.38;1.67;;;;;;;27.56;23.68;102242.91;5024594;28;99772;-68
2022/08/07 08:39:37;;;;;;;2.75;1.00;;;;;;;27.90;24.06;102246.31;5018666;28;97156;-68
2022/08/07 08:42:13;;;;;;;1.13;0.82;;;;;;;27.73;24.00;102245.03;5026365;28;97657;-67
2022/08/07 08:44:51;;;;;;;4.07;1.10;;;;;;;27.80;23.97;102244.53;5027575;28;98970;-68
2022/08/07 08:47:25;;;;;;;9.48;1.90;;;;;;;27.94;23.63;102245.06;5023107;28;99093;-67
2022/08/07 08:49:58;;;;;;;5.38;1.10;;;;;;;28.13;23.20;102239.78;5029382;28;97722;-70
2022/08/07 08:52:32;;;;;;;2.33;1.08;;;;;;;28.00;23.26;102233.69;5027328;27;97651;-69
2022/08/07 08:55:04;;;;;;;4.45;1.63;;;;;;;28.21;23.30;102233.72;5028895;27;101837;-68
2022/08/07 08:57:37;;;;;;;5.13;1.35;;;;;;;28.05;23.09;102236.84;5028229;28;99305;-68
2022/08/07 09:00:08;;;;;;;1.30;1.00;;;;;;;28.36;22.49;102234.22;5028074;28;97648;-69
2022/08/07 09:02:44;;;;;;;1.83;1.20;;;;;;;28.03;23.09;102230.69;5023534;27;98300;-68
2022/08/07 09:05:22;;;;;;;5.82;1.20;;;;;;;27.62;23.05;102236.09;5026826;27;99147;-68
2022/08/07 09:08:01;;;;;;;3.10;1.10;;;;;;;27.98;22.91;102230.22;5030565;27;97545;-68
2022/08/07 09:10:33;;;;;;;2.65;1.38;;;;;;;27.92;22.77;102229.88;5027295;28;97038;-68
2022/08/07 09:13:08;;;;;;;2.75;1.40;;;;;;;28.43;22.29;102230.84;5029597;28;98253;-68
2022/08/07 09:15:41;;;;;;;2.17;1.20;;;;;;;28.44;22.25;102232.56;5031111;28;99101;-68
2022/08/07 09:18:21;;;;;;;3.33;1.42;;;;;;;28.74;21.93;102233.59;5029225;28;97664;-68
2022/08/07 09:20:57;;;;;;;2.47;1.00;;;;;;;28.53;22.15;102226.34;5023503;28;99062;-66
2022/08/07 09:23:33;;;;;;;2.33;1.30;;;;;;;28.79;21.41;102237.66;5030861;27;97585;-67
2022/08/07 09:26:14;;;;;;;3.50;1.40;;;;;;;28.85;21.33;102220.78;5031819;27;98998;-67
2022/08/07 09:28:44;;;;;;;3.03;1.50;;;;;;;29.12;21.03;102222.88;5025906;28;99264;-66
2022/08/07 09:31:19;;;;;;;3.08;1.13;;;;;;;28.81;21.27;102216.63;5027411;27;97808;-66
2022/08/07 09:33:58;;;;;;;3.78;1.48;;;;;;;28.36;21.51;102212.47;5030185;28;97266;-68
2022/08/07 09:36:31;;;;;;;4.20;2.78;;;;;;;28.23;22.09;102217.25;5028033;28;101341;-67
2022/08/07 09:39:07;;;;;;;5.55;1.70;;;;;;;28.59;22.10;102213.19;5029651;28;99197;-67
2022/08/07 09:41:38;;;;;;;3.40;1.35;;;;;;;28.54;22.13;102202.72;5026444;28;97335;-67
2022/08/07 09:44:13;;;;;;;2.55;1.30;;;;;;;28.85;21.46;102206.31;5031540;27;97089;-67
2022/08/07 09:46:53;;;;;;;3.22;1.20;;;;;;;28.74;21.92;102207.28;5026894;27;99251;-68
2022/08/07 09:49:33;;;;;;;3.13;1.13;;;;;;;28.96;21.68;102208.06;5030013;28;97511;-67
2022/08/07 09:52:06;;;;;;;4.57;1.20;;;;;;;29.20;21.68;102200.41;5027343;27;97637;-67
2022/08/07 09:54:40;;;;;;;5.47;1.15;;;;;;;28.98;21.49;102196.03;5023849;28;98273;-67
2022/08/07 09:57:47;;;;;;;1.95;1.02;;;;;;;28.93;21.63;102193.75;5027657;28;98981;-66
2022/08/07 10:00:16;;;;;;;4.57;1.25;;;;;;;28.75;21.57;102187.22;4994324;27;99096;-67
2022/08/07 10:03:21;;;;;;;3.25;1.13;;;;;;;28.72;21.65;102192.06;5027830;28;96771;-67
2022/08/07 10:06:08;;;;;;;1.50;1.00;;;;;;;29.13;21.51;102194.66;5026799;28;96800;-67
2022/08/07 10:08:48;;;;;;;2.15;0.90;;;;;;;28.90;20.90;102191.28;5036589;27;98919;-67
2022/08/07 10:11:32;;;;;;;1.85;0.90;;;;;;;29.36;20.59;102181.66;5026938;27;99062;-67
2022/08/07 10:14:09;;;;;;;3.30;1.15;;;;;;;29.06;20.87;102185.31;5019810;27;97787;-67
2022/08/07 10:17:05;;;;;;;2.47;1.20;;;;;;;28.92;20.80;102180.28;5025797;27;96976;-66
2022/08/07 10:19:46;;;;;;;2.20;1.20;;;;;;;28.89;21.02;102175.09;5028027;27;98907;-67
2022/08/07 10:22:46;;;;;;;1.63;0.88;;;;;;;28.61;21.73;102174.00;5019981;27;99152;-67
2022/08/07 10:25:20;;;;;;;2.25;0.85;;;;;;;28.06;22.37;102169.78;4995752;27;97334;-67
2022/08/07 10:28:17;;;;;;;1.25;1.08;;;;;;;28.07;22.34;102164.22;5025990;27;96879;-67
2022/08/07 10:30:57;;;;;;;2.25;1.17;;;;;;;28.16;21.52;102153.59;5025880;27;99673;-67
2022/08/07 10:33:52;;;;;;;3.60;0.90;;;;;;;28.03;21.71;102145.59;5029956;27;98932;-66
2022/08/07 10:36:30;;;;;;;3.08;1.00;;;;;;;28.30;21.88;102148.66;5026427;27;96829;-67
2022/08/07 10:39:02;;;;;;;3.33;1.10;;;;;;;28.49;22.32;102150.59;5026470;27;96781;-66
2022/08/07 10:41:33;;;;;;;2.45;0.88;;;;;;;28.77;21.86;102160.75;5026322;27;99538;-67
2022/08/07 10:44:12;;;;;;;3.40;1.50;;;;;;;28.42;22.00;102144.00;5027489;27;99038;-67
2022/08/07 10:46:42;;;;;;;3.30;1.10;;;;;;;28.63;21.09;102142.06;5022990;27;97408;-66
2022/08/07 10:49:15;;;;;;;2.15;0.98;;;;;;;28.39;21.52;102147.84;5026816;27;97297;-66
2022/08/07 10:51:55;;;;;;;2.53;1.10;;;;;;;28.59;20.88;102137.91;5025249;27;101987;-67
2022/08/07 10:54:41;;;;;;;1.85;1.25;;;;;;;28.45;21.40;102130.13;5027515;28;98896;-68
2022/08/07 10:57:12;;;;;;;3.03;0.90;;;;;;;28.51;21.45;102127.72;5027142;28;97453;-67
2022/08/07 11:00:05;;;;;;;5.57;0.90;;;;;;;28.53;21.51;102133.03;5029805;27;96831;-68
2022/08/07 11:02:39;;;;;;;2.50;0.75;;;;;;;28.61;21.16;102126.91;5022751;27;98972;-67
2022/08/07 11:05:17;;;;;;;6.25;0.90;;;;;;;28.49;21.11;102123.41;5027199;27;98898;-66
2022/08/07 11:07:55;;;;;;;2.10;0.93;;;;;;;28.58;21.40;102122.59;5029495;28;96723;-68
2022/08/07 11:10:29;;;;;;;2.15;1.00;;;;;;;28.91;21.10;102121.41;5030018;28;97330;-68
2022/08/07 11:13:05;;;;;;;4.95;1.00;;;;;;;28.95;21.41;102111.13;5027247;27;99156;-67
2022/08/07 11:15:38;;;;;;;1.70;1.00;;;;;;;29.21;20.62;102113.13;5027405;27;98958;-67
2022/08/07 11:18:13;;;;;;;2.17;1.00;;;;;;;29.36;20.41;102105.44;5025293;27;96975;-67
2022/08/07 11:20:49;;;;;;;1.48;0.77;;;;;;;29.14;20.38;102105.72;5023920;27;96893;-67
2022/08/07 11:23:23;;;;;;;1.58;1.10;;;;;;;28.89;20.84;102102.50;5026854;28;98846;-67
2022/08/07 11:25:54;;;;;;;1.52;0.95;;;;;;;28.80;21.17;102095.19;5029112;28;98845;-67
2022/08/07 11:28:26;;;;;;;2.17;0.90;;;;;;;28.61;21.03;102091.53;5026199;27;97481;-67
2022/08/07 11:30:59;;;;;;;2.63;1.23;;;;;;;28.75;21.16;102089.28;5028282;27;96861;-67
2022/08/07 11:33:33;;;;;;;3.60;1.15;;;;;;;28.76;21.43;102085.59;5033675;27;99066;-67
2022/08/07 11:36:13;;;;;;;2.60;0.95;;;;;;;28.75;21.06;102093.91;5024115;28;99396;-66
2022/08/07 11:38:46;;;;;;;3.50;1.23;;;;;;;28.83;21.10;102088.59;5026859;28;96764;-67
2022/08/07 11:41:16;;;;;;;3.25;1.20;;;;;;;29.12;21.11;102092.22;5028924;27;97996;-65
2022/08/07 11:43:52;;;;;;;1.63;0.90;;;;;;;29.22;20.62;102081.34;5030407;27;99257;-67
2022/08/07 11:46:35;;;;;;;4.90;1.17;;;;;;;29.23;20.59;102077.59;5028657;28;97828;-67